Terminal Aerodrome Forecast
Issued by NWS Nashville, TN

Home | Current Version | Previous Version | Text Only | Print | Product List | Glossary On
Versions: 1 2 3 4 5 6 7 8 9 10 11 12 13
000
FTUS44 KOHX 141100
TAFBNA
TAF
KBNA 141124Z 1412/1512 22005KT P6SM VCSH FEW035 SCT100
     FM141400 24009KT 5SM -TSRA SCT030CB BKN070
      TEMPO 1414/1418 VRB10G20KT 2SM +TSRA BKN025CB
     FM141800 25011KT 6SM -SHRA VCTS SCT035CB BKN060=

USA.gov is the U.S. government's official web portal to all federal, state and local government web resources and services.